createdAt,value
2022-09-21T00:01:53.488Z,99139.88
2022-09-21T00:05:10.494Z,99139.88
2022-09-21T00:08:27.352Z,99139.07
2022-09-21T00:11:44.151Z,99136.73
2022-09-21T00:15:00.208Z,99128.30
2022-09-21T00:18:18.166Z,99137.41
2022-09-21T00:21:35.105Z,99132.12
2022-09-21T00:24:51.165Z,99134.94
2022-09-21T00:28:07.567Z,99141.22
2022-09-21T00:31:24.981Z,99137.73
2022-09-21T00:34:41.160Z,99139.73
2022-09-21T00:37:57.231Z,99139.56
2022-09-21T00:41:15.407Z,99147.34
2022-09-21T00:44:40.852Z,99140.91
2022-09-21T00:47:59.753Z,99145.20
2022-09-21T00:51:17.008Z,99141.71
2022-09-21T00:54:37.916Z,99154.14
2022-09-21T00:57:58.062Z,99148.67
2022-09-21T01:01:16.599Z,99144.88
2022-09-21T01:04:33.948Z,99144.88
2022-09-21T01:07:54.228Z,99154.45
2022-09-21T01:11:31.540Z,99144.20
2022-09-21T01:15:08.175Z,99150.49
2022-09-21T01:18:29.858Z,99146.34
2022-09-21T01:21:50.490Z,99154.64
2022-09-21T01:25:16.170Z,99157.94
2022-09-21T01:28:38.706Z,99153.63
2022-09-21T01:32:00.597Z,99156.45
2022-09-21T01:35:22.322Z,99158.45
2022-09-21T01:38:42.320Z,99158.11
2022-09-21T01:42:00.617Z,99150.34
2022-09-21T01:45:21.508Z,99158.45
2022-09-21T01:48:42.749Z,99158.59
2022-09-21T01:52:04.673Z,99161.09
2022-09-21T01:55:25.810Z,99164.22
2022-09-21T01:58:47.499Z,99164.08
2022-09-21T02:02:08.783Z,99166.38
2022-09-21T02:05:30.295Z,99162.92
2022-09-21T02:08:47.067Z,99159.94
2022-09-21T02:12:03.018Z,99170.67
2022-09-21T02:15:20.875Z,99167.88
2022-09-21T02:18:47.006Z,99173.01
2022-09-21T02:22:10.907Z,99169.52
2022-09-21T02:25:31.183Z,99168.35
2022-09-21T02:28:53.861Z,99170.52
2022-09-21T02:32:14.189Z,99171.50
2022-09-21T02:35:40.373Z,99166.06
2022-09-21T02:39:00.582Z,99167.70
2022-09-21T02:42:22.080Z,99176.31
2022-09-21T02:45:43.051Z,99171.86
2022-09-21T02:49:03.551Z,99178.47
2022-09-21T02:52:23.551Z,99181.30
2022-09-21T02:55:41.669Z,99174.98
2022-09-21T02:59:01.625Z,99192.02
2022-09-21T03:02:19.480Z,99186.59
2022-09-21T03:05:37.503Z,99199.66
2022-09-21T03:08:53.559Z,99193.38
2022-09-21T03:12:10.065Z,99191.71
2022-09-21T03:15:26.896Z,99190.72
2022-09-21T03:18:43.961Z,99190.72
2022-09-21T03:22:00.557Z,99197.51
2022-09-21T03:25:18.309Z,99198.32
2022-09-21T03:28:34.580Z,99199.98
2022-09-21T03:31:51.409Z,99204.80
2022-09-21T03:35:07.444Z,99211.75
2022-09-21T03:38:23.605Z,99215.21
2022-09-21T03:41:39.870Z,99217.86
2022-09-21T03:44:55.978Z,99223.16
2022-09-21T03:48:12.157Z,99226.63
2022-09-21T03:51:28.175Z,99226.48
2022-09-21T03:54:45.283Z,99221.02
2022-09-21T03:58:01.578Z,99227.30
2022-09-21T04:01:17.849Z,99227.47
2022-09-21T04:04:34.179Z,99225.47
2022-09-21T04:07:51.648Z,99227.47
2022-09-21T04:11:07.691Z,99233.92
2022-09-21T04:14:23.978Z,99233.92
2022-09-21T04:17:40.010Z,99238.06
2022-09-21T04:20:55.988Z,99240.20
2022-09-21T04:24:13.869Z,99246.00
2022-09-21T04:27:31.022Z,99243.20
2022-09-21T04:30:47.508Z,99244.36
2022-09-21T04:34:05.210Z,99242.03
2022-09-21T04:37:21.109Z,99245.35
2022-09-21T04:40:37.319Z,99242.52
2022-09-21T04:43:54.810Z,99242.38
2022-09-21T04:47:11.178Z,99238.23
2022-09-21T04:50:27.682Z,99244.00
2022-09-21T04:53:47.630Z,99255.28
2022-09-21T04:57:03.702Z,99249.16
2022-09-21T05:00:22.140Z,99257.75
2022-09-21T05:03:39.215Z,99251.30
2022-09-21T05:06:55.336Z,99257.11
2022-09-21T05:10:12.435Z,99256.59
2022-09-21T05:13:28.522Z,99259.09
2022-09-21T05:16:45.400Z,99249.49
2022-09-21T05:20:02.077Z,99256.11
2022-09-21T05:23:18.266Z,99252.80
2022-09-21T05:26:34.257Z,99267.53
2022-09-21T05:29:52.607Z,99264.56
2022-09-21T05:33:12.931Z,99269.02
2022-09-21T05:36:42.131Z,99273.33
2022-09-21T05:39:59.795Z,99278.31
2022-09-21T05:43:18.961Z,99279.80
2022-09-21T05:46:43.691Z,99280.63
2022-09-21T05:50:06.969Z,99285.24
2022-09-21T05:53:46.685Z,99287.08
2022-09-21T05:57:06.948Z,99283.61
2022-09-21T06:00:29.028Z,99280.13
2022-09-21T06:03:50.373Z,99279.45
2022-09-21T06:07:06.358Z,99286.91
2022-09-21T06:10:24.982Z,99282.59
2022-09-21T06:13:41.851Z,99293.05
2022-09-21T06:16:58.402Z,99290.06
2022-09-21T06:20:16.570Z,99291.55
2022-09-21T06:23:32.772Z,99284.44
2022-09-21T06:26:50.353Z,99297.52
2022-09-21T06:30:08.763Z,99299.01
2022-09-21T06:33:26.141Z,99289.89
2022-09-21T06:36:42.436Z,99296.86
2022-09-21T06:39:58.717Z,99299.33
2022-09-21T06:43:16.140Z,99297.85
2022-09-21T06:46:32.486Z,99301.98
2022-09-21T06:49:48.780Z,99300.97
2022-09-21T06:53:09.779Z,99302.63
2022-09-21T06:56:26.161Z,99314.22
2022-09-21T06:59:42.283Z,99318.70
2022-09-21T07:02:58.443Z,99323.84
2022-09-21T07:06:16.744Z,99325.19
2022-09-21T07:12:52.821Z,99324.02
2022-09-21T07:16:13.411Z,99324.02
2022-09-21T07:19:29.660Z,99316.73
2022-09-21T07:22:45.945Z,99326.53
2022-09-21T07:26:03.891Z,99337.46
2022-09-21T07:29:20.387Z,99332.80
2022-09-21T07:32:36.859Z,99333.47
2022-09-21T07:36:02.253Z,99335.45
2022-09-21T07:39:19.870Z,99343.23
2022-09-21T07:42:36.032Z,99345.39
2022-09-21T07:46:00.081Z,99351.36
2022-09-21T07:49:19.348Z,99351.86
2022-09-21T07:52:35.835Z,99351.50
2022-09-21T07:55:52.159Z,99354.97
2022-09-21T07:59:12.018Z,99350.97
2022-09-21T08:02:28.280Z,99346.50
2022-09-21T08:05:44.520Z,99350.15
2022-09-21T08:09:01.614Z,99353.30
2022-09-21T08:12:21.254Z,99355.77
2022-09-21T08:15:49.474Z,99355.09
2022-09-21T08:18:57.553Z,99356.40
2022-09-21T08:22:14.696Z,99357.73
2022-09-21T08:25:30.965Z,99353.22
2022-09-21T08:28:49.779Z,99348.70
2022-09-21T08:32:09.032Z,99358.79
2022-09-21T08:35:25.256Z,99364.59
2022-09-21T08:38:48.610Z,99360.94
2022-09-21T08:42:24.117Z,99364.08
2022-09-21T08:45:45.585Z,99364.59
2022-09-21T08:49:07.857Z,99364.75
2022-09-21T08:52:27.169Z,99367.02
2022-09-21T08:55:43.438Z,99361.19
2022-09-21T08:58:59.621Z,99361.97
2022-09-21T09:02:33.955Z,99369.16
2022-09-21T09:05:58.905Z,99371.66
2022-09-21T09:09:48.834Z,99369.19
2022-09-21T09:13:14.166Z,99374.13
2022-09-21T09:16:35.475Z,99368.82
2022-09-21T09:19:56.085Z,99373.98
2022-09-21T09:23:19.612Z,99368.19
2022-09-21T09:26:43.099Z,99375.98
2022-09-21T09:30:05.058Z,99368.67
2022-09-21T09:33:27.187Z,99367.80
2022-09-21T09:36:58.361Z,99371.75
2022-09-21T09:40:08.563Z,99364.45
2022-09-21T09:43:33.664Z,99372.59
2022-09-21T09:46:57.897Z,99369.94
2022-09-21T09:50:22.529Z,99371.94
2022-09-21T09:53:39.089Z,99369.61
2022-09-21T09:56:56.058Z,99369.30
2022-09-21T10:00:23.626Z,99370.33
2022-09-21T10:03:41.721Z,99373.32
2022-09-21T10:06:57.969Z,99362.70
2022-09-21T10:10:40.785Z,99371.33
2022-09-21T10:13:59.499Z,99362.52
2022-09-21T10:17:22.436Z,99371.33
2022-09-21T10:20:38.717Z,99366.14
2022-09-21T10:24:00.102Z,99367.98
2022-09-21T10:27:22.486Z,99367.98
2022-09-21T10:30:46.395Z,99373.77
2022-09-21T10:34:12.917Z,99376.95
2022-09-21T10:37:40.983Z,99381.77
2022-09-21T10:40:57.939Z,99374.28
2022-09-21T10:44:19.319Z,99377.25
2022-09-21T10:47:39.943Z,99381.75
2022-09-21T10:50:58.882Z,99377.25
2022-09-21T10:54:19.698Z,99368.46
2022-09-21T10:57:37.256Z,99369.28
2022-09-21T11:00:56.294Z,99372.75
2022-09-21T11:04:17.529Z,99372.75
2022-09-21T11:07:39.046Z,99367.44
2022-09-21T11:11:03.501Z,99369.09
2022-09-21T11:14:31.728Z,99368.76
2022-09-21T11:17:53.745Z,99360.79
2022-09-21T11:21:15.191Z,99365.56
2022-09-21T11:24:38.346Z,99360.73
2022-09-21T11:27:57.458Z,99370.36
2022-09-21T11:31:42.918Z,99370.36
2022-09-21T11:35:37.932Z,99363.23
2022-09-21T11:39:02.255Z,99366.70
2022-09-21T11:42:30.556Z,99356.73
2022-09-21T11:46:07.081Z,99361.98
2022-09-21T11:50:07.685Z,99353.96
2022-09-21T11:53:31.452Z,99356.89
2022-09-21T11:56:57.434Z,99359.95
2022-09-21T12:00:29.674Z,99359.77
2022-09-21T12:04:19.922Z,99358.17
2022-09-21T12:07:57.033Z,99352.05
2022-09-21T12:11:21.990Z,99341.88
2022-09-21T12:14:50.695Z,99349.95
2022-09-21T12:18:13.488Z,99339.05
2022-09-21T12:21:35.835Z,99335.66
2022-09-21T12:24:59.002Z,99328.79
2022-09-21T12:28:23.482Z,99331.53
2022-09-21T12:31:50.324Z,99328.24
2022-09-21T12:35:12.386Z,99328.13
2022-09-21T12:38:35.506Z,99325.11
2022-09-21T12:41:57.157Z,99334.11
2022-09-21T12:45:20.033Z,99322.18
2022-09-21T12:48:44.404Z,99324.55
2022-09-21T12:52:07.543Z,99328.67
2022-09-21T12:55:42.290Z,99323.34
2022-09-21T12:59:25.268Z,99323.54
2022-09-21T13:02:47.440Z,99322.34
2022-09-21T13:06:45.539Z,99324.66
2022-09-21T13:10:09.740Z,99323.80
2022-09-21T13:13:34.974Z,99319.95
2022-09-21T13:17:03.615Z,99320.05
2022-09-21T13:24:09.759Z,99316.25
2022-09-21T13:27:27.169Z,99310.93
2022-09-21T13:30:49.693Z,99316.25
2022-09-21T13:34:32.605Z,99310.11
2022-09-21T13:37:50.331Z,99316.25
2022-09-21T13:41:11.248Z,99322.97
2022-09-21T13:44:51.409Z,99314.72
2022-09-21T13:48:19.610Z,99309.88
2022-09-21T13:51:41.080Z,99313.00
2022-09-21T13:55:05.392Z,99311.34
2022-09-21T13:58:32.750Z,99304.72
2022-09-21T14:01:49.642Z,99309.61
2022-09-21T14:05:15.260Z,99301.78
2022-09-21T14:08:43.217Z,99298.77
2022-09-21T14:12:07.125Z,99291.41
2022-09-21T14:15:48.714Z,99290.59
2022-09-21T14:19:05.838Z,99289.39
2022-09-21T14:22:45.190Z,99283.53
2022-09-21T14:26:03.794Z,99276.19
2022-09-21T14:29:26.057Z,99268.47
2022-09-21T14:32:49.314Z,99255.02
2022-09-21T14:36:21.584Z,99256.68
2022-09-21T14:39:43.254Z,99279.25
2022-09-21T14:43:01.483Z,99303.55
2022-09-21T14:47:08.383Z,99293.45
2022-09-21T14:50:41.453Z,99289.66
2022-09-21T14:54:36.863Z,99282.67
2022-09-21T14:58:23.046Z,99294.41
2022-09-21T15:02:05.283Z,99291.77
2022-09-21T15:05:36.588Z,99293.61
2022-09-21T15:09:14.211Z,99299.95
2022-09-21T15:12:35.098Z,99295.05
2022-09-21T15:15:58.769Z,99306.23
2022-09-21T15:19:38.059Z,99301.34
2022-09-21T15:23:02.939Z,99309.94
2022-09-21T15:26:24.255Z,99308.13
2022-09-21T15:29:42.212Z,99311.59
2022-09-21T15:33:04.566Z,99309.94
2022-09-21T15:36:32.856Z,99308.83
2022-09-21T15:39:49.719Z,99318.80
2022-09-21T15:43:12.092Z,99309.17
2022-09-21T15:46:28.873Z,99317.66
2022-09-21T15:49:47.554Z,99316.54
2022-09-21T15:53:09.392Z,99322.73
2022-09-21T15:56:34.091Z,99327.74
2022-09-21T15:59:55.466Z,99327.26
2022-09-21T16:03:26.672Z,99328.95
2022-09-21T16:06:53.181Z,99333.41
2022-09-21T16:10:16.932Z,99344.52
2022-09-21T16:13:54.446Z,99360.94
2022-09-21T16:17:32.048Z,99384.34
2022-09-21T16:21:18.066Z,99374.72
2022-09-21T16:24:36.465Z,99380.90
2022-09-21T16:28:04.090Z,99382.93
2022-09-21T16:31:40.034Z,99375.64
2022-09-21T16:34:59.201Z,99379.80
2022-09-21T16:38:20.311Z,99378.53
2022-09-21T16:41:42.510Z,99381.86
2022-09-21T16:45:00.509Z,99378.70
2022-09-21T16:48:22.331Z,99382.17
2022-09-21T16:51:40.218Z,99392.96
2022-09-21T16:54:57.504Z,99383.02
2022-09-21T16:58:14.186Z,99381.88
2022-09-21T17:01:37.638Z,99374.76
2022-09-21T17:04:55.619Z,99380.69
2022-09-21T17:08:14.625Z,99375.70
2022-09-21T17:11:40.909Z,99384.31
2022-09-21T17:15:00.320Z,99385.99
2022-09-21T17:18:20.344Z,99382.98
2022-09-21T17:21:37.109Z,99387.97
2022-09-21T17:24:56.815Z,99399.58
2022-09-21T17:28:22.082Z,99408.03
2022-09-21T17:31:47.902Z,99409.68
2022-09-21T17:35:17.815Z,99408.36
2022-09-21T17:38:36.424Z,99406.70
2022-09-21T17:42:03.646Z,99415.80
2022-09-21T17:45:33.786Z,99413.34
2022-09-21T17:49:00.367Z,99409.20
2022-09-21T17:52:51.250Z,99402.71
2022-09-21T17:56:23.763Z,99407.53
2022-09-21T17:59:44.107Z,99409.84
2022-09-21T18:03:03.669Z,99413.17
2022-09-21T18:06:24.741Z,99413.17
2022-09-21T18:09:55.562Z,99415.64
2022-09-21T18:13:35.252Z,99414.83
2022-09-21T18:17:01.302Z,99427.57
2022-09-21T18:20:47.230Z,99434.03
2022-09-21T18:24:50.093Z,99429.75
2022-09-21T18:28:21.783Z,99435.70
2022-09-21T18:32:23.258Z,99436.20
2022-09-21T18:36:31.247Z,99441.50
2022-09-21T18:39:54.654Z,99430.73
2022-09-21T18:43:26.421Z,99426.59
2022-09-21T18:47:03.673Z,99420.47
2022-09-21T18:50:38.604Z,99427.12
2022-09-21T18:54:21.138Z,99420.47
2022-09-21T18:57:55.569Z,99416.97
2022-09-21T19:01:32.131Z,99423.12
2022-09-21T19:05:07.309Z,99423.29
2022-09-21T19:08:43.107Z,99421.94
2022-09-21T19:12:16.489Z,99420.62
2022-09-21T19:16:02.587Z,99418.30
2022-09-21T19:19:30.878Z,99418.63
2022-09-21T19:23:17.337Z,99421.75
2022-09-21T19:26:57.989Z,99418.59
2022-09-21T19:30:32.369Z,99411.97
2022-09-21T19:34:05.619Z,99409.32
2022-09-21T19:37:23.876Z,99398.05
2022-09-21T19:40:49.043Z,99404.67
2022-09-21T19:44:18.536Z,99403.69
2022-09-21T19:47:44.097Z,99402.53
2022-09-21T19:51:09.322Z,99401.54
2022-09-21T19:54:50.136Z,99412.31
2022-09-21T19:58:25.552Z,99404.02
2022-09-21T20:01:56.602Z,99407.02
2022-09-21T20:05:28.408Z,99403.52
2022-09-21T20:08:51.138Z,99403.34
2022-09-21T20:12:13.428Z,99405.34
2022-09-21T20:15:34.445Z,99409.83
2022-09-21T20:18:56.122Z,99410.50
2022-09-21T20:22:20.683Z,99402.55
2022-09-21T20:25:45.903Z,99405.84
2022-09-21T20:29:08.706Z,99409.66
2022-09-21T20:32:28.772Z,99405.84
2022-09-21T20:35:46.324Z,99403.70
2022-09-21T20:39:05.000Z,99402.38
2022-09-21T20:42:27.972Z,99406.83
2022-09-21T20:45:48.652Z,99411.48
2022-09-21T20:49:09.313Z,99402.36
2022-09-21T20:52:27.221Z,99396.75
2022-09-21T20:55:50.110Z,99396.07
2022-09-21T20:59:06.949Z,99395.59
2022-09-21T21:02:25.228Z,99401.88
2022-09-21T21:05:41.489Z,99407.85
2022-09-21T21:08:57.580Z,99410.31
2022-09-21T21:12:17.564Z,99402.36
2022-09-21T21:15:37.251Z,99407.66
2022-09-21T21:18:53.541Z,99401.85
2022-09-21T21:22:10.577Z,99405.34
2022-09-21T21:25:27.224Z,99397.88
2022-09-21T21:28:49.304Z,99409.30
2022-09-21T21:32:10.757Z,99399.85
2022-09-21T21:35:30.243Z,99399.03
2022-09-21T21:38:51.035Z,99401.69
2022-09-21T21:42:15.213Z,99402.02
2022-09-21T21:45:43.812Z,99392.41
2022-09-21T21:49:10.124Z,99389.08
2022-09-21T21:52:42.033Z,99387.59
2022-09-21T21:56:08.439Z,99389.59
2022-09-21T21:59:32.682Z,99386.77
2022-09-21T22:02:48.861Z,99384.46
2022-09-21T22:06:06.548Z,99379.67
2022-09-21T22:09:23.417Z,99384.59
2022-09-21T22:12:39.718Z,99380.31
2022-09-21T22:15:56.827Z,99373.33
2022-09-21T22:19:15.819Z,99369.02
2022-09-21T22:22:31.865Z,99366.70
2022-09-21T22:25:48.200Z,99369.83
2022-09-21T22:29:06.656Z,99361.89
2022-09-21T22:32:22.870Z,99359.72
2022-09-21T22:35:41.196Z,99366.03
2022-09-21T22:38:59.165Z,99365.69
2022-09-21T22:42:18.139Z,99362.73
2022-09-21T22:45:34.186Z,99358.89
2022-09-21T22:48:51.533Z,99354.24
2022-09-21T22:52:08.382Z,99357.06
2022-09-21T22:55:27.245Z,99348.44
2022-09-21T22:58:47.029Z,99351.94
2022-09-21T23:02:03.218Z,99349.59
2022-09-21T23:05:20.000Z,99348.78
2022-09-21T23:08:36.613Z,99344.46
2022-09-21T23:11:56.889Z,99348.61
2022-09-21T23:15:16.211Z,99342.97
2022-09-21T23:18:29.882Z,99345.45
2022-09-21T23:21:45.812Z,99341.14
2022-09-21T23:25:03.392Z,99350.58
2022-09-21T23:28:19.568Z,99352.23
2022-09-21T23:31:41.145Z,99346.13
2022-09-21T23:34:55.185Z,99345.95
2022-09-21T23:38:11.269Z,99350.27
2022-09-21T23:41:29.723Z,99349.25
2022-09-21T23:44:43.461Z,99354.85
2022-09-21T23:47:59.574Z,99348.57
2022-09-21T23:51:15.963Z,99357.36
2022-09-21T23:54:32.124Z,99359.66
2022-09-21T23:57:48.108Z,99356.80
